Minot, Maine
Current Conditions -  °F | °C
As of 5:35 AM on Thursday 27 Nov 2014 (Local Time) from KLEW Reporting Station
Broken Clouds Broken Clouds  
Wind Chill: 17°   Ceiling: 3200
Heat Index: 28°   Visibility: 8mi
Dew Point: 25°   Wind: 15mph
Humidity: 86%   Direction: 340°NNW
Pressure: 29.77"   Gusts: 26mph
Location:  44.09°N, 70.32°W
Report Text: KLEW 271035Z AUTO 34013G23KT 8SM FEW017 SCT022 BKN032 M02/M04 A2977 RMK AO1
Loading
Personal Weather Stations






























Interactive Weather Map New forecast layout! Learn more

10-Day Weather Forecast

Advertisements
Track Severe Weather on mobile